createdAt,value
2018-05-15T00:02:03.515Z,16.06
2018-05-15T00:04:31.025Z,15.98
2018-05-15T00:06:58.549Z,15.96
2018-05-15T00:09:26.098Z,15.93
2018-05-15T00:11:53.620Z,15.96
2018-05-15T00:14:21.169Z,16.03
2018-05-15T00:16:48.715Z,16.01
2018-05-15T00:19:16.240Z,16.06
2018-05-15T00:21:43.798Z,16.07
2018-05-15T00:24:11.322Z,16.05
2018-05-15T00:26:38.839Z,16.12
2018-05-15T00:29:06.431Z,16.13
2018-05-15T00:31:33.947Z,16.22
2018-05-15T00:34:01.486Z,16.19
2018-05-15T00:36:29.156Z,16.18
2018-05-15T00:38:56.697Z,16.23
2018-05-15T00:41:24.236Z,16.20
2018-05-15T00:43:51.752Z,16.23
2018-05-15T00:46:19.267Z,16.20
2018-05-15T00:48:46.773Z,16.24
2018-05-15T00:51:14.316Z,16.25
2018-05-15T00:53:41.836Z,16.19
2018-05-15T00:56:09.364Z,16.15
2018-05-15T00:58:36.884Z,16.07
2018-05-15T01:01:04.397Z,16.11
2018-05-15T01:03:31.908Z,16.15
2018-05-15T01:05:59.453Z,16.15
2018-05-15T01:08:26.977Z,16.18
2018-05-15T01:10:54.511Z,16.16
2018-05-15T01:13:22.044Z,16.12
2018-05-15T01:15:49.560Z,16.10
2018-05-15T01:18:17.153Z,16.01
2018-05-15T01:20:44.731Z,15.98
2018-05-15T01:23:12.291Z,16.03
2018-05-15T01:25:39.845Z,16.01
2018-05-15T01:28:07.369Z,16.04
2018-05-15T01:30:34.910Z,15.99
2018-05-15T01:33:02.461Z,16.05
2018-05-15T01:35:30.009Z,16.04
2018-05-15T01:37:57.594Z,16.03
2018-05-15T01:40:25.106Z,15.95
2018-05-15T01:42:52.617Z,16.01
2018-05-15T01:45:20.128Z,15.99
2018-05-15T01:47:47.632Z,15.96
2018-05-15T01:50:15.130Z,15.91
2018-05-15T01:52:42.664Z,15.86
2018-05-15T01:55:10.176Z,15.75
2018-05-15T01:57:37.699Z,15.79
2018-05-15T02:00:06.005Z,15.44
2018-05-15T02:02:33.522Z,15.40
2018-05-15T02:05:01.114Z,15.47
2018-05-15T02:07:28.628Z,15.66
2018-05-15T02:09:56.121Z,15.64
2018-05-15T02:12:23.634Z,15.59
2018-05-15T02:14:51.144Z,15.56
2018-05-15T02:17:19.575Z,15.39
2018-05-15T02:19:47.089Z,15.46
2018-05-15T02:22:14.605Z,15.37
2018-05-15T02:24:42.132Z,15.41
2018-05-15T02:27:09.644Z,15.43
2018-05-15T02:29:37.160Z,15.47
2018-05-15T02:32:04.671Z,15.46
2018-05-15T02:34:32.181Z,15.52
2018-05-15T02:36:59.703Z,15.54
2018-05-15T02:39:27.267Z,15.59
2018-05-15T02:41:54.817Z,15.64
2018-05-15T02:44:22.363Z,15.65
2018-05-15T02:46:49.872Z,15.68
2018-05-15T02:49:17.397Z,15.69
2018-05-15T02:51:45.016Z,15.58
2018-05-15T02:54:12.517Z,15.55
2018-05-15T02:56:40.020Z,15.48
2018-05-15T02:59:07.545Z,15.43
2018-05-15T03:01:35.052Z,15.56
2018-05-15T03:04:02.580Z,15.64
2018-05-15T03:06:30.087Z,15.65
2018-05-15T03:08:57.620Z,15.56
2018-05-15T03:11:25.132Z,15.09
2018-05-15T03:13:52.644Z,15.29
2018-05-15T03:16:20.206Z,15.21
2018-05-15T03:18:47.723Z,14.94
2018-05-15T03:21:15.252Z,14.99
2018-05-15T03:23:42.771Z,15.16
2018-05-15T03:26:10.285Z,15.14
2018-05-15T03:28:37.821Z,14.99
2018-05-15T03:31:05.356Z,15.18
2018-05-15T03:33:32.872Z,15.32
2018-05-15T03:36:00.392Z,15.40
2018-05-15T03:38:27.898Z,15.18
2018-05-15T03:40:55.417Z,15.35
2018-05-15T03:43:22.953Z,15.49
2018-05-15T03:45:50.469Z,15.56
2018-05-15T03:48:17.999Z,15.63
2018-05-15T03:50:45.508Z,15.59
2018-05-15T03:53:13.059Z,15.67
2018-05-15T03:55:40.620Z,15.75
2018-05-15T03:58:08.127Z,15.66
2018-05-15T04:00:47.366Z,15.68
2018-05-15T04:03:26.683Z,15.78
2018-05-15T04:06:06.049Z,15.79
2018-05-15T04:08:33.884Z,15.85
2018-05-15T04:11:01.443Z,15.91
2018-05-15T04:13:28.968Z,15.98
2018-05-15T04:15:56.520Z,16.08
2018-05-15T04:18:24.031Z,16.13
2018-05-15T04:20:51.636Z,16.26
2018-05-15T04:23:19.107Z,16.09
2018-05-15T04:25:46.638Z,16.14
2018-05-15T04:28:14.263Z,16.14
2018-05-15T04:30:41.724Z,16.17
2018-05-15T04:33:09.255Z,16.19
2018-05-15T04:35:36.865Z,16.14
2018-05-15T04:38:04.387Z,16.22
2018-05-15T04:40:31.888Z,15.89
2018-05-15T04:42:59.871Z,15.92
2018-05-15T04:45:27.376Z,15.99
2018-05-15T04:47:54.878Z,16.10
2018-05-15T04:50:22.407Z,16.16
2018-05-15T04:52:49.906Z,16.08
2018-05-15T04:55:17.433Z,16.14
2018-05-15T04:57:44.957Z,16.21
2018-05-15T05:00:12.522Z,16.30
2018-05-15T05:02:40.040Z,16.35
2018-05-15T05:05:07.585Z,16.39
2018-05-15T05:07:35.215Z,16.41
2018-05-15T05:10:02.761Z,16.30
2018-05-15T05:12:30.268Z,16.41
2018-05-15T05:14:57.778Z,16.39
2018-05-15T05:17:25.347Z,16.58
2018-05-15T05:19:52.870Z,16.63
2018-05-15T05:22:20.431Z,16.84
2018-05-15T05:24:47.951Z,16.93
2018-05-15T05:27:15.470Z,16.99
2018-05-15T05:29:43.007Z,16.98
2018-05-15T05:32:10.566Z,17.06
2018-05-15T05:34:38.095Z,17.14
2018-05-15T05:37:05.640Z,17.15
2018-05-15T05:39:33.160Z,17.22
2018-05-15T05:42:00.667Z,17.24
2018-05-15T05:44:28.213Z,17.30
2018-05-15T05:46:56.111Z,17.44
2018-05-15T05:49:23.632Z,17.55
2018-05-15T05:51:51.139Z,17.61
2018-05-15T05:54:18.652Z,17.63
2018-05-15T05:56:46.178Z,17.67
2018-05-15T05:59:13.741Z,17.74
2018-05-15T06:01:41.251Z,17.86
2018-05-15T06:04:08.773Z,17.84
2018-05-15T06:06:37.160Z,17.92
2018-05-15T06:09:05.352Z,18.14
2018-05-15T06:11:32.931Z,18.21
2018-05-15T06:14:00.440Z,18.40
2018-05-15T06:16:27.945Z,18.62
2018-05-15T06:18:55.472Z,18.74
2018-05-15T06:21:23.035Z,18.74
2018-05-15T06:23:50.562Z,18.89
2018-05-15T06:26:18.078Z,18.88
2018-05-15T06:28:45.606Z,18.97
2018-05-15T06:31:13.107Z,19.11
2018-05-15T06:33:40.620Z,19.27
2018-05-15T06:36:08.158Z,19.28
2018-05-15T06:38:35.789Z,19.38
2018-05-15T06:41:03.240Z,19.44
2018-05-15T06:43:30.759Z,19.48
2018-05-15T06:45:58.278Z,19.52
2018-05-15T06:48:25.798Z,19.51
2018-05-15T06:50:53.315Z,19.50
2018-05-15T06:53:20.904Z,19.60
2018-05-15T06:55:48.412Z,19.70
2018-05-15T06:58:15.922Z,19.79
2018-05-15T07:00:43.446Z,19.71
2018-05-15T07:03:10.943Z,19.73
2018-05-15T07:05:38.488Z,19.74
2018-05-15T07:08:05.998Z,19.88
2018-05-15T07:10:33.513Z,19.99
2018-05-15T07:13:01.034Z,19.84
2018-05-15T07:15:28.566Z,19.92
2018-05-15T07:17:56.091Z,20.02
2018-05-15T07:20:23.646Z,20.11
2018-05-15T07:22:51.180Z,20.15
2018-05-15T07:25:18.704Z,20.30
2018-05-15T07:27:46.259Z,20.18
2018-05-15T07:30:13.818Z,20.34
2018-05-15T07:32:41.338Z,20.42
2018-05-15T07:35:08.852Z,20.40
2018-05-15T07:37:36.407Z,20.44
2018-05-15T07:40:03.950Z,20.51
2018-05-15T07:42:31.466Z,20.56
2018-05-15T07:44:58.980Z,20.66
2018-05-15T07:47:26.496Z,20.79
2018-05-15T07:49:54.041Z,20.85
2018-05-15T07:52:21.561Z,20.84
2018-05-15T07:54:49.077Z,20.86
2018-05-15T07:57:16.594Z,20.94
2018-05-15T07:59:44.134Z,21.08
2018-05-15T08:02:11.672Z,21.12
2018-05-15T08:04:39.227Z,21.21
2018-05-15T08:07:06.791Z,21.28
2018-05-15T08:09:34.295Z,21.41
2018-05-15T08:12:01.823Z,21.51
2018-05-15T08:14:29.334Z,21.56
2018-05-15T08:16:56.868Z,21.78
2018-05-15T08:19:24.381Z,21.86
2018-05-15T08:21:51.885Z,21.84
2018-05-15T08:24:19.423Z,21.74
2018-05-15T08:26:46.977Z,22.00
2018-05-15T08:29:14.480Z,22.16
2018-05-15T08:31:41.996Z,22.21
2018-05-15T08:34:09.519Z,22.40
2018-05-15T08:36:37.038Z,22.55
2018-05-15T08:39:04.572Z,22.74
2018-05-15T08:41:32.098Z,23.00
2018-05-15T08:43:59.614Z,23.13
2018-05-15T08:46:27.189Z,23.14
2018-05-15T08:48:54.691Z,23.02
2018-05-15T08:51:22.201Z,23.04
2018-05-15T08:53:49.724Z,23.10
2018-05-15T08:56:17.231Z,22.99
2018-05-15T08:58:45.523Z,22.98
2018-05-15T09:01:13.111Z,22.99
2018-05-15T09:03:40.596Z,23.13
2018-05-15T09:06:08.120Z,23.24
2018-05-15T09:08:35.644Z,23.29
2018-05-15T09:11:03.194Z,23.41
2018-05-15T09:13:30.728Z,23.60
2018-05-15T09:15:58.278Z,23.55
2018-05-15T09:18:25.780Z,23.69
2018-05-15T09:20:53.352Z,23.66
2018-05-15T09:23:20.865Z,23.71
2018-05-15T09:25:49.031Z,23.79
2018-05-15T09:28:16.535Z,23.94
2018-05-15T09:30:44.103Z,24.22
2018-05-15T09:33:11.614Z,24.12
2018-05-15T09:35:39.119Z,24.30
2018-05-15T09:38:06.633Z,24.41
2018-05-15T09:40:34.145Z,24.55
2018-05-15T09:43:01.657Z,24.55
2018-05-15T09:45:29.183Z,24.70
2018-05-15T09:47:56.692Z,24.81
2018-05-15T09:50:24.217Z,24.65
2018-05-15T09:52:51.743Z,24.72
2018-05-15T09:55:19.266Z,24.65
2018-05-15T09:57:46.774Z,24.76
2018-05-15T10:00:14.327Z,25.02
2018-05-15T10:02:41.847Z,25.10
2018-05-15T10:05:09.361Z,25.16
2018-05-15T10:07:36.891Z,25.33
2018-05-15T10:10:04.460Z,25.55
2018-05-15T10:12:31.983Z,25.55
2018-05-15T10:14:59.537Z,25.81
2018-05-15T10:17:27.051Z,25.67
2018-05-15T10:19:54.664Z,25.54
2018-05-15T10:22:22.135Z,25.64
2018-05-15T10:24:49.655Z,25.80
2018-05-15T10:27:17.151Z,25.95
2018-05-15T10:29:44.655Z,25.96
2018-05-15T10:32:12.169Z,25.60
2018-05-15T10:34:39.740Z,25.61
2018-05-15T10:37:07.238Z,25.46
2018-05-15T10:39:34.749Z,25.65
2018-05-15T10:42:02.280Z,25.88
2018-05-15T10:44:29.834Z,25.75
2018-05-15T10:46:57.367Z,26.15
2018-05-15T10:49:24.867Z,26.47
2018-05-15T10:51:52.377Z,25.81
2018-05-15T10:54:19.902Z,25.66
2018-05-15T10:56:47.431Z,25.17
2018-05-15T10:59:14.936Z,25.45
2018-05-15T11:01:42.448Z,25.74
2018-05-15T11:04:10.022Z,25.99
2018-05-15T11:06:37.553Z,26.05
2018-05-15T11:09:05.078Z,26.14
2018-05-15T11:11:32.630Z,26.27
2018-05-15T11:14:00.152Z,26.39
2018-05-15T11:16:27.656Z,26.32
2018-05-15T11:18:55.209Z,26.36
2018-05-15T11:21:34.567Z,26.41
2018-05-15T11:27:04.299Z,26.36
2018-05-15T11:29:31.816Z,26.45
2018-05-15T11:31:59.342Z,26.16
2018-05-15T11:34:26.864Z,25.96
2018-05-15T11:36:54.420Z,25.82
2018-05-15T11:39:21.933Z,25.75
2018-05-15T11:41:49.464Z,25.93
2018-05-15T11:44:16.985Z,26.06
2018-05-15T11:46:44.503Z,25.92
2018-05-15T11:49:12.701Z,25.94
2018-05-15T11:51:40.035Z,25.73
2018-05-15T11:54:07.081Z,25.35
2018-05-15T11:56:34.679Z,25.36
2018-05-15T11:59:02.144Z,25.45
2018-05-15T12:01:29.684Z,25.93
2018-05-15T12:03:57.948Z,25.82
2018-05-15T12:06:25.524Z,25.63
2018-05-15T12:08:52.967Z,26.08
2018-05-15T12:11:20.560Z,27.15
2018-05-15T12:13:48.152Z,27.76
2018-05-15T12:16:15.672Z,26.78
2018-05-15T12:18:43.197Z,26.93
2018-05-15T12:21:10.895Z,26.68
2018-05-15T12:23:38.264Z,26.26
2018-05-15T12:26:05.775Z,26.37
2018-05-15T12:28:33.285Z,26.67
2018-05-15T12:31:00.811Z,27.03
2018-05-15T12:33:28.303Z,27.21
2018-05-15T12:35:55.872Z,28.29
2018-05-15T12:38:23.413Z,29.04
2018-05-15T12:40:50.927Z,29.50
2018-05-15T12:43:18.427Z,29.45
2018-05-15T12:45:45.951Z,28.21
2018-05-15T12:48:13.481Z,27.32
2018-05-15T12:50:40.987Z,26.59
2018-05-15T12:53:08.515Z,25.98
2018-05-15T12:55:36.039Z,26.04
2018-05-15T12:58:03.556Z,25.75
2018-05-15T13:00:31.090Z,25.38
2018-05-15T13:02:58.589Z,25.33
2018-05-15T13:05:26.117Z,25.17
2018-05-15T13:07:53.645Z,25.17
2018-05-15T13:10:21.183Z,25.69
2018-05-15T13:12:48.742Z,26.04
2018-05-15T13:15:16.259Z,26.50
2018-05-15T13:17:43.775Z,27.28
2018-05-15T13:20:11.306Z,28.22
2018-05-15T13:22:38.811Z,29.06
2018-05-15T13:25:06.327Z,28.74
2018-05-15T13:27:33.836Z,28.70
2018-05-15T13:30:01.355Z,27.71
2018-05-15T13:32:28.871Z,28.12
2018-05-15T13:34:56.392Z,27.85
2018-05-15T13:37:23.907Z,27.50
2018-05-15T13:39:51.432Z,27.12
2018-05-15T13:42:18.947Z,26.91
2018-05-15T13:44:46.465Z,26.78
2018-05-15T13:47:13.966Z,26.64
2018-05-15T13:49:41.468Z,26.17
2018-05-15T13:52:09.040Z,25.77
2018-05-15T13:54:36.547Z,25.59
2018-05-15T13:57:04.086Z,25.55
2018-05-15T13:59:31.591Z,25.90
2018-05-15T14:01:59.104Z,25.73
2018-05-15T14:04:26.705Z,25.73
2018-05-15T14:06:54.199Z,25.18
2018-05-15T14:09:21.711Z,25.03
2018-05-15T14:11:49.223Z,24.62
2018-05-15T14:14:16.751Z,23.98
2018-05-15T14:16:44.277Z,23.79
2018-05-15T14:19:11.812Z,23.11
2018-05-15T14:21:39.345Z,22.12
2018-05-15T14:24:06.838Z,21.95
2018-05-15T14:26:34.355Z,21.66
2018-05-15T14:29:01.875Z,21.60
2018-05-15T14:31:29.459Z,21.28
2018-05-15T14:33:56.992Z,21.29
2018-05-15T14:36:24.516Z,21.20
2018-05-15T14:38:52.041Z,20.86
2018-05-15T14:41:26.281Z,20.63
2018-05-15T14:43:53.830Z,20.49
2018-05-15T14:46:21.345Z,20.31
2018-05-15T14:48:48.904Z,20.52
2018-05-15T14:51:31.316Z,20.76
2018-05-15T14:53:58.907Z,20.79
2018-05-15T14:56:26.413Z,20.88
2018-05-15T14:58:53.914Z,20.69
2018-05-15T15:01:21.429Z,20.63
2018-05-15T15:03:48.933Z,20.48
2018-05-15T15:06:16.430Z,20.44
2018-05-15T15:08:43.961Z,20.27
2018-05-15T15:11:11.479Z,19.94
2018-05-15T15:13:38.966Z,19.66
2018-05-15T15:16:06.507Z,19.37
2018-05-15T15:18:34.016Z,19.00
2018-05-15T15:21:01.517Z,18.86
2018-05-15T15:23:29.037Z,18.68
2018-05-15T15:25:56.577Z,18.24
2018-05-15T15:28:24.149Z,17.78
2018-05-15T15:30:51.747Z,17.45
2018-05-15T15:33:19.265Z,17.47
2018-05-15T15:35:46.785Z,17.43
2018-05-15T15:38:14.311Z,17.25
2018-05-15T15:40:41.798Z,17.15
2018-05-15T15:43:09.299Z,17.15
2018-05-15T15:45:36.816Z,17.31
2018-05-15T15:48:04.319Z,17.83
2018-05-15T15:50:32.848Z,18.27
2018-05-15T15:53:00.348Z,18.75
2018-05-15T15:55:28.214Z,18.94
2018-05-15T15:57:55.776Z,18.94
2018-05-15T16:00:23.303Z,19.12
2018-05-15T16:02:50.832Z,19.22
2018-05-15T16:05:18.387Z,19.37
2018-05-15T16:07:45.907Z,19.52
2018-05-15T16:10:13.524Z,19.63
2018-05-15T16:12:40.979Z,20.15
2018-05-15T16:15:08.559Z,20.79
2018-05-15T16:17:36.154Z,21.41
2018-05-15T16:20:03.665Z,21.75
2018-05-15T16:22:31.169Z,21.82
2018-05-15T16:24:58.675Z,21.66
2018-05-15T16:27:26.219Z,21.76
2018-05-15T16:29:53.731Z,21.86
2018-05-15T16:32:21.231Z,21.69
2018-05-15T16:34:48.776Z,21.26
2018-05-15T16:37:16.283Z,20.91
2018-05-15T16:39:43.785Z,20.40
2018-05-15T16:42:11.346Z,20.13
2018-05-15T16:44:38.847Z,19.75
2018-05-15T16:47:06.365Z,19.65
2018-05-15T16:49:33.945Z,19.33
2018-05-15T16:52:01.594Z,19.07
2018-05-15T16:54:29.139Z,19.15
2018-05-15T16:56:56.774Z,19.12
2018-05-15T16:59:24.327Z,18.99
2018-05-15T17:01:52.681Z,19.05
2018-05-15T17:04:20.225Z,18.85
2018-05-15T17:06:47.715Z,18.70
2018-05-15T17:09:15.221Z,18.52
2018-05-15T17:11:42.719Z,18.38
2018-05-15T17:14:10.210Z,18.32
2018-05-15T17:16:37.716Z,18.29
2018-05-15T17:19:05.240Z,18.26
2018-05-15T17:21:32.791Z,18.26
2018-05-15T17:24:00.363Z,18.22
2018-05-15T17:26:27.901Z,18.12
2018-05-15T17:28:55.465Z,18.05
2018-05-15T17:31:23.833Z,18.21
2018-05-15T17:33:51.313Z,18.33
2018-05-15T17:36:18.831Z,18.34
2018-05-15T17:38:46.372Z,18.34
2018-05-15T17:41:13.915Z,18.35
2018-05-15T17:43:41.509Z,18.40
2018-05-15T17:46:09.034Z,18.38
2018-05-15T17:48:36.573Z,18.30
2018-05-15T17:51:04.175Z,18.31
2018-05-15T17:53:32.457Z,18.13
2018-05-15T17:55:59.990Z,18.30
2018-05-15T17:58:27.525Z,17.98
2018-05-15T18:00:55.029Z,17.87
2018-05-15T18:03:22.542Z,18.05
2018-05-15T18:05:50.117Z,17.89
2018-05-15T18:08:17.607Z,18.15
2018-05-15T18:10:45.133Z,18.25
2018-05-15T18:13:12.701Z,18.40
2018-05-15T18:15:40.279Z,18.34
2018-05-15T18:18:07.775Z,18.39
2018-05-15T18:20:35.339Z,18.43
2018-05-15T18:23:02.856Z,18.41
2018-05-15T18:25:30.360Z,18.49
2018-05-15T18:27:57.901Z,18.40
2018-05-15T18:30:26.422Z,18.40
2018-05-15T18:32:54.033Z,18.46
2018-05-15T18:35:22.296Z,18.55
2018-05-15T18:37:49.846Z,18.61
2018-05-15T18:40:17.368Z,18.63
2018-05-15T18:42:44.884Z,18.64
2018-05-15T18:45:12.393Z,18.74
2018-05-15T18:47:39.911Z,18.74
2018-05-15T18:50:07.424Z,18.64
2018-05-15T18:52:35.036Z,18.65
2018-05-15T18:55:02.546Z,18.65
2018-05-15T18:57:30.105Z,18.49
2018-05-15T18:59:57.621Z,18.29
2018-05-15T19:02:25.118Z,18.25
2018-05-15T19:04:52.665Z,18.06
2018-05-15T19:07:20.163Z,17.81
2018-05-15T19:09:47.723Z,17.73
2018-05-15T19:12:15.297Z,17.68
2018-05-15T19:14:42.798Z,17.57
2018-05-15T19:17:10.445Z,17.42
2018-05-15T19:19:37.921Z,17.29
2018-05-15T19:22:05.442Z,17.11
2018-05-15T19:24:32.978Z,17.03
2018-05-15T19:27:00.628Z,16.76
2018-05-15T19:29:28.082Z,16.65
2018-05-15T19:31:55.597Z,16.67
2018-05-15T19:34:24.894Z,16.54
2018-05-15T19:37:07.277Z,16.46
2018-05-15T19:39:35.012Z,16.32
2018-05-15T19:42:02.516Z,16.25
2018-05-15T19:44:30.018Z,16.11
2018-05-15T19:46:57.530Z,16.00
2018-05-15T19:49:25.076Z,16.03
2018-05-15T19:51:52.599Z,16.01
2018-05-15T19:54:20.136Z,16.14
2018-05-15T19:56:47.638Z,16.06
2018-05-15T19:59:15.164Z,15.94
2018-05-15T20:01:42.710Z,15.92
2018-05-15T20:04:10.214Z,15.88
2018-05-15T20:06:37.716Z,15.81
2018-05-15T20:09:06.312Z,15.77
2018-05-15T20:11:33.703Z,15.79
2018-05-15T20:14:01.252Z,15.79
2018-05-15T20:16:28.751Z,15.78
2018-05-15T20:18:56.251Z,15.91
2018-05-15T20:21:23.745Z,16.04
2018-05-15T20:23:51.365Z,16.13
2018-05-15T20:26:18.959Z,16.25
2018-05-15T20:28:46.608Z,16.28
2018-05-15T20:31:14.117Z,16.08
2018-05-15T20:33:41.627Z,16.00
2018-05-15T20:36:09.216Z,15.83
2018-05-15T20:38:36.723Z,15.73
2018-05-15T20:41:04.218Z,15.71
2018-05-15T20:43:32.514Z,15.58
2018-05-15T20:46:00.103Z,15.51
2018-05-15T20:48:27.616Z,15.37
2018-05-15T20:50:55.115Z,15.44
2018-05-15T20:53:22.613Z,15.35
2018-05-15T20:55:50.103Z,15.59
2018-05-15T20:58:17.610Z,15.45
2018-05-15T21:00:45.107Z,15.51
2018-05-15T21:03:12.612Z,15.45
2018-05-15T21:05:40.127Z,15.62
2018-05-15T21:08:08.455Z,15.80
2018-05-15T21:10:35.969Z,15.89
2018-05-15T21:13:03.521Z,15.88
2018-05-15T21:15:31.072Z,15.93
2018-05-15T21:17:58.574Z,15.90
2018-05-15T21:20:26.065Z,15.98
2018-05-15T21:22:53.559Z,16.02
2018-05-15T21:25:21.065Z,16.00
2018-05-15T21:27:48.573Z,15.81
2018-05-15T21:30:16.110Z,15.83
2018-05-15T21:32:43.613Z,15.86
2018-05-15T21:35:11.119Z,15.88
2018-05-15T21:37:38.645Z,15.68
2018-05-15T21:40:06.152Z,15.89
2018-05-15T21:42:33.655Z,15.91
2018-05-15T21:45:01.211Z,15.94
2018-05-15T21:47:28.721Z,15.93
2018-05-15T21:49:56.268Z,15.98
2018-05-15T21:52:23.775Z,15.99
2018-05-15T21:54:51.275Z,16.06
2018-05-15T21:57:18.779Z,16.07
2018-05-15T21:59:46.281Z,16.07
2018-05-15T22:02:13.807Z,15.95
2018-05-15T22:04:41.315Z,15.92
2018-05-15T22:07:08.839Z,15.97
2018-05-15T22:09:36.344Z,15.94
2018-05-15T22:12:15.534Z,15.56
2018-05-15T22:14:54.775Z,15.41
2018-05-15T22:17:34.161Z,15.50
2018-05-15T22:20:13.579Z,15.09
2018-05-15T22:22:40.544Z,15.24
2018-05-15T22:25:08.050Z,15.42
2018-05-15T22:27:35.564Z,15.35
2018-05-15T22:30:04.456Z,15.48
2018-05-15T22:32:31.968Z,15.40
2018-05-15T22:34:59.473Z,15.38
2018-05-15T22:37:26.971Z,15.31
2018-05-15T22:39:54.506Z,15.35
2018-05-15T22:42:22.015Z,15.41
2018-05-15T22:44:49.535Z,15.47
2018-05-15T22:47:17.093Z,15.53
2018-05-15T22:49:44.591Z,15.55
2018-05-15T22:52:12.133Z,15.44
2018-05-15T22:54:39.696Z,15.47
2018-05-15T22:57:07.195Z,15.55
2018-05-15T22:59:34.686Z,15.64
2018-05-15T23:02:02.198Z,15.62
2018-05-15T23:04:29.770Z,15.63
2018-05-15T23:06:57.281Z,15.56
2018-05-15T23:09:24.818Z,15.57
2018-05-15T23:11:52.338Z,15.52
2018-05-15T23:14:19.899Z,15.47
2018-05-15T23:16:47.411Z,15.47
2018-05-15T23:19:15.906Z,15.46
2018-05-15T23:21:43.413Z,15.57
2018-05-15T23:24:10.978Z,15.59
2018-05-15T23:26:40.414Z,15.62
2018-05-15T23:29:07.922Z,15.60
2018-05-15T23:31:35.427Z,15.56
2018-05-15T23:34:02.963Z,15.55
2018-05-15T23:36:30.511Z,15.43
2018-05-15T23:38:58.010Z,15.42
2018-05-15T23:41:25.519Z,15.20
2018-05-15T23:43:53.027Z,15.03
2018-05-15T23:46:20.579Z,15.18
2018-05-15T23:48:48.091Z,15.20
2018-05-15T23:51:15.634Z,15.23
2018-05-15T23:53:43.139Z,15.24
2018-05-15T23:56:10.713Z,15.25
2018-05-15T23:58:38.246Z,15.27
